createdAt,value
2023-01-30T00:01:56.231Z,80.12
2023-01-30T00:04:24.004Z,81.31
2023-01-30T00:06:51.622Z,81.13
2023-01-30T00:09:19.597Z,81.08
2023-01-30T00:11:47.180Z,80.96
2023-01-30T00:14:16.169Z,81.21
2023-01-30T00:16:43.783Z,81.54
2023-01-30T00:19:12.062Z,81.85
2023-01-30T00:21:39.635Z,81.39
2023-01-30T00:24:08.253Z,81.36
2023-01-30T00:26:35.902Z,81.67
2023-01-30T00:29:04.458Z,81.03
2023-01-30T00:31:33.483Z,81.19
2023-01-30T00:34:01.409Z,81.86
2023-01-30T00:36:29.002Z,81.50
2023-01-30T00:38:58.397Z,81.65
2023-01-30T00:41:46.112Z,81.25
2023-01-30T00:44:32.219Z,82.12
2023-01-30T00:47:08.678Z,80.97
2023-01-30T00:49:37.474Z,80.72
2023-01-30T00:52:06.099Z,80.58
2023-01-30T00:54:34.065Z,79.72
2023-01-30T00:57:01.906Z,79.99
2023-01-30T00:59:29.514Z,80.19
2023-01-30T01:01:57.293Z,80.40
2023-01-30T01:04:27.782Z,80.81
2023-01-30T01:06:55.463Z,80.68
2023-01-30T01:09:23.092Z,81.10
2023-01-30T01:11:50.699Z,81.40
2023-01-30T01:14:18.841Z,80.67
2023-01-30T01:16:46.654Z,81.47
2023-01-30T01:19:14.595Z,81.65
2023-01-30T01:21:43.548Z,80.81
2023-01-30T01:24:15.072Z,80.69
2023-01-30T01:26:43.425Z,80.83
2023-01-30T01:29:14.101Z,81.23
2023-01-30T01:31:42.276Z,80.39
2023-01-30T01:34:10.781Z,80.73
2023-01-30T01:36:54.943Z,80.89
2023-01-30T01:39:24.848Z,80.70
2023-01-30T01:41:51.761Z,80.77
2023-01-30T01:44:19.625Z,81.04
2023-01-30T01:46:52.103Z,80.66
2023-01-30T01:49:24.031Z,80.19
2023-01-30T01:51:56.430Z,80.79
2023-01-30T01:54:33.772Z,81.08
2023-01-30T01:57:05.689Z,81.24
2023-01-30T01:59:39.473Z,82.36
2023-01-30T02:02:11.785Z,81.97
2023-01-30T02:05:01.624Z,83.08
2023-01-30T02:07:34.342Z,83.23
2023-01-30T02:10:04.550Z,83.62
2023-01-30T02:12:32.464Z,83.49
2023-01-30T02:15:02.099Z,83.74
2023-01-30T02:17:29.773Z,83.73
2023-01-30T02:20:05.153Z,83.36
2023-01-30T02:22:50.656Z,84.10
2023-01-30T02:25:50.002Z,84.52
2023-01-30T02:28:48.751Z,84.05
2023-01-30T02:31:37.630Z,84.03
2023-01-30T02:34:18.667Z,83.65
2023-01-30T02:36:57.296Z,83.21
2023-01-30T02:39:38.072Z,82.76
2023-01-30T02:42:13.279Z,82.79
2023-01-30T02:44:51.853Z,81.88
2023-01-30T02:47:26.402Z,81.28
2023-01-30T02:50:02.149Z,80.97
2023-01-30T02:52:31.642Z,80.61
2023-01-30T02:54:59.256Z,80.21
2023-01-30T02:57:28.061Z,80.71
2023-01-30T03:00:04.208Z,80.58
2023-01-30T03:02:51.991Z,80.18
2023-01-30T03:05:55.657Z,80.01
2023-01-30T03:08:32.150Z,79.69
2023-01-30T03:11:04.801Z,79.54
2023-01-30T03:13:46.243Z,80.09
2023-01-30T03:16:20.488Z,80.25
2023-01-30T03:18:50.380Z,80.61
2023-01-30T03:21:19.029Z,80.69
2023-01-30T03:23:47.424Z,81.43
2023-01-30T03:26:19.731Z,80.70
2023-01-30T03:28:50.519Z,80.72
2023-01-30T03:31:19.167Z,81.23
2023-01-30T03:33:46.875Z,81.59
2023-01-30T03:36:16.661Z,81.06
2023-01-30T03:38:46.355Z,82.09
2023-01-30T03:41:14.143Z,80.92
2023-01-30T03:43:41.963Z,81.42
2023-01-30T03:46:09.596Z,80.93
2023-01-30T03:48:39.753Z,80.61
2023-01-30T03:51:07.923Z,80.58
2023-01-30T03:53:37.527Z,80.33
2023-01-30T03:56:06.406Z,80.65
2023-01-30T03:58:36.847Z,81.41
2023-01-30T04:01:16.674Z,81.48
2023-01-30T04:03:44.846Z,81.01
2023-01-30T04:06:12.539Z,80.91
2023-01-30T04:08:42.262Z,80.89
2023-01-30T04:11:15.804Z,81.38
2023-01-30T04:13:43.666Z,82.00
2023-01-30T04:16:17.259Z,81.95
2023-01-30T04:19:17.633Z,81.86
2023-01-30T04:21:46.120Z,80.61
2023-01-30T04:24:15.447Z,81.70
2023-01-30T04:26:43.248Z,81.12
2023-01-30T04:29:11.560Z,80.75
2023-01-30T04:31:40.386Z,80.07
2023-01-30T04:34:23.861Z,80.07
2023-01-30T04:36:51.593Z,79.74
2023-01-30T04:39:22.128Z,80.29
2023-01-30T04:41:50.119Z,80.27
2023-01-30T04:44:18.128Z,80.44
2023-01-30T04:47:08.987Z,79.88
2023-01-30T04:49:37.271Z,80.54
2023-01-30T04:52:07.002Z,80.47
2023-01-30T04:54:39.008Z,80.79
2023-01-30T04:57:06.629Z,80.58
2023-01-30T04:59:34.842Z,80.77
2023-01-30T05:02:05.848Z,80.50
2023-01-30T05:04:34.112Z,81.34
2023-01-30T05:07:01.726Z,80.81
2023-01-30T05:09:29.886Z,80.59
2023-01-30T05:11:58.856Z,80.25
2023-01-30T05:14:26.691Z,80.27
2023-01-30T05:16:54.340Z,80.39
2023-01-30T05:19:22.555Z,80.18
2023-01-30T05:21:50.163Z,80.55
2023-01-30T05:24:18.304Z,80.66
2023-01-30T05:26:45.903Z,81.73
2023-01-30T05:29:14.862Z,81.99
2023-01-30T05:31:42.502Z,81.83
2023-01-30T05:34:13.080Z,81.16
2023-01-30T05:36:40.711Z,81.31
2023-01-30T05:39:09.268Z,81.20
2023-01-30T05:41:37.211Z,80.95
2023-01-30T05:44:05.455Z,80.97
2023-01-30T05:46:34.398Z,81.11
2023-01-30T05:49:04.126Z,80.79
2023-01-30T05:51:31.939Z,80.93
2023-01-30T05:53:59.926Z,80.38
2023-01-30T05:56:27.533Z,80.87
2023-01-30T05:58:57.269Z,80.49
2023-01-30T06:01:25.213Z,80.79
2023-01-30T06:03:54.900Z,81.02
2023-01-30T06:06:23.587Z,80.35
2023-01-30T06:08:54.736Z,80.67
2023-01-30T06:11:22.719Z,80.79
2023-01-30T06:13:51.120Z,80.48
2023-01-30T06:16:19.608Z,80.31
2023-01-30T06:18:48.257Z,80.35
2023-01-30T06:21:17.631Z,80.41
2023-01-30T06:23:46.685Z,80.24
2023-01-30T06:26:14.510Z,80.28
2023-01-30T06:28:42.916Z,80.27
2023-01-30T06:31:10.751Z,80.54
2023-01-30T06:33:38.464Z,80.20
2023-01-30T06:36:06.844Z,80.47
2023-01-30T06:38:35.777Z,80.13
2023-01-30T06:41:03.748Z,80.85
2023-01-30T06:43:31.317Z,80.62
2023-01-30T06:46:00.062Z,80.53
2023-01-30T06:48:27.999Z,79.87
2023-01-30T06:50:55.917Z,79.69
2023-01-30T06:53:30.055Z,79.87
2023-01-30T06:55:59.541Z,80.98
2023-01-30T06:58:27.231Z,81.81
2023-01-30T07:00:55.207Z,81.29
2023-01-30T07:03:22.805Z,81.25
2023-01-30T07:05:50.753Z,80.59
2023-01-30T07:08:18.405Z,81.61
2023-01-30T07:10:46.108Z,80.69
2023-01-30T07:13:15.502Z,80.67
2023-01-30T07:15:43.102Z,79.46
2023-01-30T07:18:10.694Z,79.28
2023-01-30T07:20:38.289Z,79.09
2023-01-30T07:23:05.939Z,79.31
2023-01-30T07:25:34.283Z,79.13
2023-01-30T07:28:03.402Z,79.45
2023-01-30T07:30:36.597Z,79.12
2023-01-30T07:33:06.273Z,79.52
2023-01-30T07:35:36.546Z,79.00
2023-01-30T07:38:04.550Z,78.24
2023-01-30T07:40:32.263Z,78.44
2023-01-30T07:43:01.889Z,78.11
2023-01-30T07:45:37.053Z,77.98
2023-01-30T07:48:04.881Z,77.68
2023-01-30T07:50:32.489Z,77.81
2023-01-30T07:53:00.176Z,77.75
2023-01-30T07:55:28.450Z,77.74
2023-01-30T07:57:56.326Z,77.17
2023-01-30T08:00:24.208Z,76.43
2023-01-30T08:02:53.118Z,77.65
2023-01-30T08:05:21.591Z,76.63
2023-01-30T08:07:49.382Z,75.98
2023-01-30T08:10:18.146Z,75.90
2023-01-30T08:12:46.370Z,75.91
2023-01-30T08:15:14.176Z,76.11
2023-01-30T08:17:42.078Z,75.57
2023-01-30T08:20:16.868Z,74.55
2023-01-30T08:22:45.102Z,73.79
2023-01-30T08:25:12.750Z,73.21
2023-01-30T08:27:40.692Z,73.26
2023-01-30T08:30:09.705Z,72.42
2023-01-30T08:32:37.666Z,71.97
2023-01-30T08:35:05.782Z,71.17
2023-01-30T08:37:34.719Z,70.91
2023-01-30T08:40:02.409Z,71.38
2023-01-30T08:42:30.470Z,71.36
2023-01-30T08:44:58.074Z,71.15
2023-01-30T08:47:26.450Z,72.22
2023-01-30T08:49:54.065Z,72.33
2023-01-30T08:52:22.547Z,71.80
2023-01-30T08:54:51.454Z,71.08
2023-01-30T08:57:20.408Z,71.71
2023-01-30T08:59:48.062Z,72.33
2023-01-30T09:02:15.701Z,72.10
2023-01-30T09:04:43.373Z,71.68
2023-01-30T09:07:11.332Z,70.18
2023-01-30T09:09:38.942Z,65.94
2023-01-30T09:12:08.433Z,63.32
2023-01-30T09:14:36.018Z,62.08
2023-01-30T09:17:04.421Z,62.99
2023-01-30T09:19:32.087Z,63.04
2023-01-30T09:22:00.303Z,65.19
2023-01-30T09:24:27.933Z,66.88
2023-01-30T09:26:57.836Z,68.55
2023-01-30T09:29:27.609Z,69.22
2023-01-30T09:31:56.462Z,68.49
2023-01-30T09:34:27.427Z,70.08
2023-01-30T09:36:55.460Z,70.19
2023-01-30T09:39:23.035Z,68.44
2023-01-30T09:42:11.111Z,67.43
2023-01-30T09:45:27.044Z,67.72
2023-01-30T09:48:03.809Z,68.29
2023-01-30T09:51:13.118Z,65.78
2023-01-30T09:54:01.280Z,62.89
2023-01-30T09:56:28.995Z,61.98
2023-01-30T09:58:58.983Z,60.49
2023-01-30T10:01:35.258Z,59.08
2023-01-30T10:04:10.774Z,57.10
2023-01-30T10:06:46.609Z,57.83
2023-01-30T10:09:24.589Z,56.62
2023-01-30T10:12:05.239Z,56.36
2023-01-30T10:14:58.226Z,56.57
2023-01-30T10:17:37.558Z,56.32
2023-01-30T10:20:31.431Z,55.70
2023-01-30T10:23:21.123Z,54.69
2023-01-30T10:25:53.629Z,56.46
2023-01-30T10:28:27.390Z,55.53
2023-01-30T10:31:01.656Z,55.76
2023-01-30T10:33:34.339Z,60.10
2023-01-30T10:36:08.088Z,63.60
2023-01-30T10:38:41.207Z,65.23
2023-01-30T10:41:16.808Z,68.10
2023-01-30T10:43:48.740Z,69.23
2023-01-30T10:46:31.619Z,69.96
2023-01-30T10:49:06.194Z,70.39
2023-01-30T10:51:48.030Z,70.74
2023-01-30T10:54:21.751Z,70.93
2023-01-30T10:56:58.898Z,67.48
2023-01-30T10:59:40.854Z,65.66
2023-01-30T11:02:24.075Z,65.86
2023-01-30T11:04:59.349Z,65.87
2023-01-30T11:07:30.804Z,63.50
2023-01-30T11:10:00.197Z,64.23
2023-01-30T11:12:27.865Z,64.12
2023-01-30T11:15:00.836Z,63.83
2023-01-30T11:17:35.260Z,63.92
2023-01-30T11:20:13.364Z,65.42
2023-01-30T11:22:47.553Z,67.03
2023-01-30T11:25:18.372Z,66.97
2023-01-30T11:27:54.022Z,65.24
2023-01-30T11:30:23.549Z,64.58
2023-01-30T11:32:51.602Z,65.25
2023-01-30T11:35:29.633Z,68.95
2023-01-30T11:38:12.987Z,70.13
2023-01-30T11:40:41.415Z,71.81
2023-01-30T11:43:13.474Z,72.97
2023-01-30T11:45:45.700Z,74.16
2023-01-30T11:48:33.362Z,73.88
2023-01-30T11:51:08.368Z,73.12
2023-01-30T11:53:41.233Z,73.54
2023-01-30T11:56:15.795Z,73.31
2023-01-30T11:58:47.052Z,73.03
2023-01-30T12:01:16.175Z,74.08
2023-01-30T12:03:48.726Z,74.12
2023-01-30T12:06:25.724Z,74.16
2023-01-30T12:08:55.472Z,76.01
2023-01-30T12:11:29.740Z,75.30
2023-01-30T12:14:14.306Z,75.42
2023-01-30T12:16:51.439Z,75.66
2023-01-30T12:19:32.225Z,74.81
2023-01-30T12:22:08.473Z,75.12
2023-01-30T12:24:42.278Z,74.51
2023-01-30T12:27:17.332Z,74.76
2023-01-30T12:29:56.371Z,73.80
2023-01-30T12:32:28.796Z,74.49
2023-01-30T12:34:57.316Z,73.00
2023-01-30T12:37:39.641Z,72.71
2023-01-30T12:40:18.732Z,73.03
2023-01-30T12:43:09.133Z,72.83
2023-01-30T12:45:44.825Z,73.74
2023-01-30T12:48:48.356Z,72.68
2023-01-30T12:51:33.722Z,72.94
2023-01-30T12:54:14.659Z,73.22
2023-01-30T12:56:59.056Z,73.94
2023-01-30T12:59:36.027Z,73.63
2023-01-30T13:02:35.876Z,73.85
2023-01-30T13:05:21.517Z,73.82
2023-01-30T13:08:04.193Z,73.85
2023-01-30T13:10:39.239Z,73.02
2023-01-30T13:13:15.644Z,73.69
2023-01-30T13:15:52.380Z,74.79
2023-01-30T13:18:26.778Z,74.11
2023-01-30T13:21:03.201Z,72.99
2023-01-30T13:23:42.772Z,74.04
2023-01-30T13:26:15.118Z,73.93
2023-01-30T13:28:46.490Z,73.88
2023-01-30T13:31:21.531Z,72.99
2023-01-30T13:33:53.511Z,74.13
2023-01-30T13:36:27.332Z,73.39
2023-01-30T13:39:00.651Z,74.39
2023-01-30T13:41:36.599Z,73.67
2023-01-30T13:44:16.317Z,74.60
2023-01-30T13:46:45.316Z,73.48
2023-01-30T13:49:21.956Z,74.34
2023-01-30T13:51:54.058Z,73.94
2023-01-30T13:54:37.742Z,74.03
2023-01-30T13:57:20.808Z,73.30
2023-01-30T14:00:10.677Z,74.11
2023-01-30T14:03:22.986Z,74.32
2023-01-30T14:06:02.569Z,75.02
2023-01-30T14:08:33.500Z,74.96
2023-01-30T14:11:01.392Z,76.71
2023-01-30T14:13:31.407Z,75.22
2023-01-30T14:16:02.808Z,75.72
2023-01-30T14:18:33.987Z,75.95
2023-01-30T14:21:15.982Z,76.17
2023-01-30T14:23:56.130Z,75.31
2023-01-30T14:27:02.681Z,74.70
2023-01-30T14:29:54.343Z,75.02
2023-01-30T14:32:54.403Z,76.14
2023-01-30T14:35:27.257Z,76.42
2023-01-30T14:38:13.588Z,76.14
2023-01-30T14:40:49.032Z,76.97
2023-01-30T14:43:37.680Z,77.64
2023-01-30T14:46:09.044Z,77.04
2023-01-30T14:48:44.468Z,76.95
2023-01-30T14:51:20.106Z,76.05
2023-01-30T14:53:55.082Z,77.20
2023-01-30T14:56:41.103Z,78.11
2023-01-30T14:59:18.006Z,79.18
2023-01-30T15:02:07.810Z,80.53
2023-01-30T15:04:44.501Z,81.55
2023-01-30T15:07:16.089Z,80.65
2023-01-30T15:09:51.146Z,80.16
2023-01-30T15:12:56.125Z,81.03
2023-01-30T15:15:31.317Z,80.35
2023-01-30T15:18:24.154Z,80.62
2023-01-30T15:21:15.532Z,79.83
2023-01-30T15:23:57.931Z,80.48
2023-01-30T15:26:34.806Z,79.33
2023-01-30T15:29:27.755Z,79.92
2023-01-30T15:31:56.454Z,79.92
2023-01-30T15:34:29.068Z,80.37
2023-01-30T15:36:57.494Z,79.47
2023-01-30T15:39:27.327Z,80.47
2023-01-30T15:42:08.858Z,80.64
2023-01-30T15:44:54.820Z,79.74
2023-01-30T15:47:42.543Z,81.32
2023-01-30T15:50:12.379Z,81.16
2023-01-30T15:52:45.431Z,80.57
2023-01-30T15:55:18.661Z,80.94
2023-01-30T15:57:51.206Z,80.71
2023-01-30T16:00:27.680Z,80.59
2023-01-30T16:02:56.483Z,81.72
2023-01-30T16:05:27.077Z,81.14
2023-01-30T16:07:56.835Z,81.27
2023-01-30T16:10:26.612Z,80.88
2023-01-30T16:12:57.419Z,80.74
2023-01-30T16:15:29.430Z,80.98
2023-01-30T16:18:05.419Z,81.13
2023-01-30T16:20:58.994Z,82.19
2023-01-30T16:23:32.371Z,82.10
2023-01-30T16:26:00.900Z,82.17
2023-01-30T16:28:32.034Z,81.85
2023-01-30T16:31:02.217Z,82.36
2023-01-30T16:33:36.014Z,82.50
2023-01-30T16:36:08.015Z,83.64
2023-01-30T16:38:43.376Z,83.95
2023-01-30T16:41:33.749Z,84.46
2023-01-30T16:44:23.886Z,83.93
2023-01-30T16:46:57.731Z,83.45
2023-01-30T16:49:38.531Z,84.56
2023-01-30T16:52:16.825Z,85.15
2023-01-30T16:54:47.737Z,85.06
2023-01-30T16:57:28.733Z,83.60
2023-01-30T16:59:56.586Z,83.64
2023-01-30T17:02:29.984Z,84.90
2023-01-30T17:05:16.047Z,84.17
2023-01-30T17:07:45.702Z,84.71
2023-01-30T17:10:46.747Z,84.72
2023-01-30T17:13:31.968Z,84.53
2023-01-30T17:16:31.542Z,84.87
2023-01-30T17:18:59.879Z,85.42
2023-01-30T17:21:31.347Z,84.61
2023-01-30T17:24:02.979Z,84.05
2023-01-30T17:26:32.020Z,82.38
2023-01-30T17:29:00.788Z,82.79
2023-01-30T17:31:28.487Z,83.40
2023-01-30T17:33:56.767Z,83.59
2023-01-30T17:36:27.843Z,82.76
2023-01-30T17:38:56.463Z,83.52
2023-01-30T17:41:28.477Z,84.55
2023-01-30T17:43:56.656Z,84.44
2023-01-30T17:46:28.254Z,85.01
2023-01-30T17:48:56.749Z,84.89
2023-01-30T17:51:24.396Z,85.56
2023-01-30T17:53:52.212Z,83.66
2023-01-30T17:56:24.168Z,84.90
2023-01-30T17:58:53.562Z,84.72
2023-01-30T18:01:21.148Z,84.52
2023-01-30T18:03:49.059Z,83.58
2023-01-30T18:06:17.280Z,83.83
2023-01-30T18:08:45.283Z,84.28
2023-01-30T18:11:14.775Z,84.69
2023-01-30T18:13:47.248Z,84.01
2023-01-30T18:16:26.363Z,83.68
2023-01-30T18:18:54.808Z,84.13
2023-01-30T18:21:23.003Z,84.32
2023-01-30T18:23:50.942Z,84.30
2023-01-30T18:26:19.845Z,84.75
2023-01-30T18:28:48.239Z,83.83
2023-01-30T18:31:18.147Z,85.36
2023-01-30T18:33:45.789Z,84.64
2023-01-30T18:36:15.487Z,84.89
2023-01-30T18:38:43.266Z,84.50
2023-01-30T18:41:14.237Z,84.67
2023-01-30T18:43:42.464Z,84.82
2023-01-30T18:46:12.998Z,84.69
2023-01-30T18:48:42.456Z,84.73
2023-01-30T18:51:12.965Z,85.52
2023-01-30T18:53:40.731Z,84.81
2023-01-30T18:56:09.628Z,84.75
2023-01-30T18:58:37.329Z,84.32
2023-01-30T19:01:11.560Z,82.90
2023-01-30T19:03:39.365Z,83.46
2023-01-30T19:06:11.738Z,83.59
2023-01-30T19:08:39.543Z,83.88
2023-01-30T19:11:22.411Z,84.83
2023-01-30T19:13:50.018Z,84.09
2023-01-30T19:16:19.382Z,82.27
2023-01-30T19:18:47.092Z,83.20
2023-01-30T19:21:16.493Z,83.72
2023-01-30T19:23:44.761Z,84.85
2023-01-30T19:26:13.494Z,83.56
2023-01-30T19:28:44.502Z,84.14
2023-01-30T19:31:14.930Z,83.99
2023-01-30T19:33:43.345Z,84.96
2023-01-30T19:36:12.822Z,84.59
2023-01-30T19:38:42.696Z,83.07
2023-01-30T19:41:12.330Z,83.89
2023-01-30T19:43:40.858Z,84.39
2023-01-30T19:46:11.096Z,85.09
2023-01-30T19:48:39.274Z,85.03
2023-01-30T19:51:18.159Z,84.70
2023-01-30T19:53:52.687Z,83.51
2023-01-30T19:56:22.492Z,83.16
2023-01-30T19:58:51.609Z,83.15
2023-01-30T20:01:20.893Z,84.09
2023-01-30T20:03:49.372Z,84.23
2023-01-30T20:06:18.817Z,84.68
2023-01-30T20:08:50.236Z,83.08
2023-01-30T20:11:20.998Z,82.84
2023-01-30T20:13:49.470Z,83.85
2023-01-30T20:16:21.004Z,83.87
2023-01-30T20:18:49.944Z,84.25
2023-01-30T20:21:19.420Z,83.19
2023-01-30T20:23:49.204Z,81.44
2023-01-30T20:26:19.659Z,81.32
2023-01-30T20:28:47.379Z,81.76
2023-01-30T20:31:18.153Z,81.93
2023-01-30T20:33:45.904Z,83.01
2023-01-30T20:36:15.906Z,83.25
2023-01-30T20:38:44.988Z,83.25
2023-01-30T20:41:17.103Z,84.49
2023-01-30T20:43:48.980Z,83.56
2023-01-30T20:46:18.614Z,82.57
2023-01-30T20:48:47.294Z,83.41
2023-01-30T20:51:16.755Z,83.86
2023-01-30T20:53:48.404Z,83.54
2023-01-30T20:56:17.836Z,83.39
2023-01-30T20:58:45.783Z,83.66
2023-01-30T21:01:17.944Z,82.94
2023-01-30T21:03:48.002Z,83.71
2023-01-30T21:06:42.643Z,83.44
2023-01-30T21:09:04.682Z,82.91
2023-01-30T21:11:34.797Z,83.12
2023-01-30T21:14:02.405Z,83.72
2023-01-30T21:16:31.811Z,83.64
2023-01-30T21:19:02.333Z,84.02
2023-01-30T21:21:33.554Z,83.21
2023-01-30T21:24:03.552Z,84.16
2023-01-30T21:26:35.377Z,83.63
2023-01-30T21:29:04.016Z,84.92
2023-01-30T21:31:34.307Z,83.52
2023-01-30T21:34:02.657Z,84.95
2023-01-30T21:36:30.609Z,83.24
2023-01-30T21:39:16.113Z,82.65
2023-01-30T21:42:04.443Z,83.57
2023-01-30T21:44:33.853Z,83.15
2023-01-30T21:47:01.596Z,82.59
2023-01-30T21:49:29.225Z,83.12
2023-01-30T21:51:57.237Z,82.85
2023-01-30T21:54:25.535Z,82.63
2023-01-30T21:56:55.687Z,82.11
2023-01-30T21:59:23.319Z,82.24
2023-01-30T22:01:51.608Z,83.68
2023-01-30T22:04:19.568Z,83.16
2023-01-30T22:06:47.153Z,83.59
2023-01-30T22:09:17.164Z,82.52
2023-01-30T22:11:44.946Z,84.47
2023-01-30T22:14:14.713Z,85.09
2023-01-30T22:16:42.697Z,85.16
2023-01-30T22:19:11.535Z,83.92
2023-01-30T22:21:40.639Z,83.89
2023-01-30T22:24:11.600Z,84.08
2023-01-30T22:26:39.726Z,84.43
2023-01-30T22:29:07.691Z,84.52
2023-01-30T22:31:40.390Z,85.44
2023-01-30T22:34:08.912Z,85.09
2023-01-30T22:36:37.537Z,83.41
2023-01-30T22:39:06.234Z,83.91
2023-01-30T22:41:36.233Z,84.69
2023-01-30T22:44:07.302Z,83.79
2023-01-30T22:46:38.571Z,82.85
2023-01-30T22:49:08.268Z,84.05
2023-01-30T22:51:37.574Z,83.67
2023-01-30T22:54:07.029Z,84.37
2023-01-30T22:56:37.341Z,83.58
2023-01-30T22:59:05.788Z,84.47
2023-01-30T23:01:37.251Z,83.92
2023-01-30T23:04:07.296Z,84.74
2023-01-30T23:06:36.799Z,85.07
2023-01-30T23:09:05.699Z,83.67
2023-01-30T23:11:35.725Z,83.95
2023-01-30T23:14:07.684Z,83.96
2023-01-30T23:16:39.198Z,84.47
2023-01-30T23:19:07.227Z,84.59
2023-01-30T23:21:38.037Z,84.12
2023-01-30T23:24:08.643Z,83.30
2023-01-30T23:26:39.178Z,83.93
2023-01-30T23:29:09.087Z,84.24
2023-01-30T23:31:38.946Z,83.02
2023-01-30T23:34:08.451Z,83.77
2023-01-30T23:36:36.554Z,83.47
2023-01-30T23:39:05.406Z,83.96
2023-01-30T23:41:35.331Z,84.78
2023-01-30T23:44:03.717Z,84.05
2023-01-30T23:46:33.352Z,83.95
2023-01-30T23:49:04.103Z,82.65
2023-01-30T23:51:34.159Z,84.05
2023-01-30T23:54:02.494Z,84.32
2023-01-30T23:56:31.917Z,83.57
2023-01-30T23:59:00.439Z,83.36
